• Join FlightAware (Why Join?)
  • Login
  • US Flag 
03:02AM EDT


 

Airport Tracker/Info


-or-


 

Live Flight TrackerFlight Track Log ✈ SKW5333 ✈ 27-Jun-2012 ✈ KLAX - KABQ

Flight Track Log - Related Links

Times and Time Zones

All times are in EDT time to prevent confusion due to time zone crossing. See the SKW5333 flight status page for this flight to view local times or setup timezone preferences in your user account.

Time Position Orientation Groundspeed Altitude Reporting Facility
EDT Latitude Longitude Course Direction KTS MPH feet Rate Location/Type
01:40AM 34.0981 -117.2806 81° East  Level Estimated
01:41AM 34.1167 -117.1400 81° East  Level Estimated
01:42AM 34.1352 -116.9993 81° East  Level Estimated
01:43AM 34.1535 -116.8585 81° East  Level Estimated
01:44AM 34.1717 -116.7177 81° East  Level Estimated
01:45AM 34.1897 -116.5768 81° East  Level Estimated
01:46AM 34.2075 -116.4359 81° East  Level Estimated
01:47AM 34.2252 -116.2949 81° East  Level Estimated
01:48AM 34.2427 -116.1538 81° East  Level Estimated
01:49AM 34.2601 -116.0127 82° East  Level Estimated
01:50AM 34.2772 -115.8716 82° East  Level Estimated
01:51AM 34.2943 -115.7303 82° East  Level Estimated
01:52AM 34.3111 -115.5890 82° East  Level Estimated
01:53AM 34.3279 -115.4477 82° East  Level Estimated
01:54AM 34.3444 -115.3063 82° East  Level Estimated
01:55AM 34.3608 -115.1648 82° East  Level Estimated
01:56AM 34.3770 -115.0233 82° East  Level Estimated
01:57AM 34.3931 -114.8818 82° East  Level Estimated
01:58AM 34.4090 -114.7402 82° East  Level Estimated
01:59AM 34.4247 -114.5985 82° East  Level Estimated
02:00AM 34.4403 -114.4568 82° East  Level Estimated
02:01AM 34.4557 -114.3150 83° East  Level Estimated
02:02AM 34.4709 -114.1731 83° East  Level Estimated
02:03AM 34.4860 -114.0313 83° East  Level Estimated
02:04AM 34.5009 -113.8893 83° East  Level Estimated
02:05AM 34.5156 -113.7474 83° East  Level Estimated
02:06AM 34.5302 -113.6053 83° East  Level Estimated
02:07AM 34.5446 -113.4632 83° East  Level Estimated
02:08AM 34.5589 -113.3211 83° East  Level Estimated
02:09AM 34.5730 -113.1789 83° East  Level Estimated
02:10AM 34.5869 -113.0367 83° East  Level Estimated
02:11AM 34.6007 -112.8944 83° East  Level Estimated
02:12AM 34.6143 -112.7521 83° East  Level Estimated
02:13AM 34.6277 -112.6097 84° East  Level Estimated
02:14AM 34.6409 -112.4673 84° East  Level Estimated
02:15AM 34.6540 -112.3249 84° East  Level Estimated
02:16AM 34.6670 -112.1824 84° East  Level Estimated
02:17AM 34.6797 -112.0398 84° East  Level Estimated
02:18AM 34.6923 -111.8972 84° East  Level Estimated
02:19AM 34.7048 -111.7546 84° East  Level Estimated
02:20AM 34.7170 -111.6119 84° East  Level Estimated
02:21AM 34.7291 -111.4692 84° East  Level Estimated
02:22AM 34.7411 -111.3264 84° East  Level Estimated
02:23AM 34.7528 -111.1836 84° East  Level Estimated
02:24AM 34.7644 -111.0408 84° East  Level Estimated
02:25AM 34.7759 -110.8979 84° East  Level Estimated
02:26AM 34.7871 -110.7550 85° East  Level Estimated
02:27AM 34.7982 -110.6120 85° East  Level Estimated
02:28AM 34.8092 -110.4690 85° East  Level Estimated
02:29AM 34.8199 -110.3260 85° East  Level Estimated
02:30AM 34.8305 -110.1829 85° East  Level Estimated
02:31AM 34.8410 -110.0398 85° East  Level Estimated
02:32AM 34.8512 -109.8966 85° East  Level Estimated
02:33AM 34.8613 -109.7535 85° East  Level Estimated
02:34AM 34.8713 -109.6103 85° East  Level Estimated
02:35AM 34.8810 -109.4670 85° East  Level Estimated
02:36AM 34.8906 -109.3237 85° East  Level Estimated
02:37AM 34.9000 -109.1804 85° East  Level Estimated
02:38AM 34.9093 -109.0371 86° East  Level Estimated
02:39AM 34.9184 -108.8937 86° East  Level Estimated
02:40AM 34.9273 -108.7503 86° East  Level Estimated
02:41AM 34.9360 -108.6068 86° East  Level Estimated
02:42AM 34.9446 -108.4633 86° East  Level Estimated
02:43AM 34.9530 -108.3198 86° East  Level Estimated
02:44AM 34.9613 -108.1763 86° East  Level Estimated
02:45AM 34.9693 -108.0328 86° East  Level Estimated
02:46AM 34.9772 -107.8892 86° East  Level Estimated
02:47AM 34.9850 -107.7455 86° East  Level Estimated
02:48AM 34.9926 -107.6019 86° East  Level Estimated
02:49AM 35.0000 -107.4582 86° East  Level Estimated
02:50AM 35.0072 -107.3145 87° East  Level Estimated
02:51AM 35.0143 -107.1708 87° East  Level Estimated
02:52AM 35.0211 -107.0270 87° East  Level Estimated
02:53AM 35.0279 -106.8833 87° East  Level Estimated
02:54AM 35.0344 -106.7395 87° East  Level Estimated
02:55AM 35.0408 -106.5957 267° West  Level Estimated
02:56AM 35.0344 -106.7395 87° East  Level Estimated
02:57AM 35.0408 -106.5957 267° West  Level Estimated
02:58AM 35.0344 -106.7395 87° East  Level Estimated
02:59AM 35.0408 -106.5957 267° West  Level Estimated
03:00AM 35.0344 -106.7395 87° East  Level Estimated
03:01AM 35.0408 -106.5957 267° West  Level Estimated
03:02AM 35.0344 -106.7395 87° East  Level Estimated
03:03AM 35.0408 -106.5957 267° West  Level Estimated
03:04AM 35.0344 -106.7395 87° East  Level Estimated
03:05AM 35.0408 -106.5957 267° West  Level Estimated
03:06AM 35.0344 -106.7395 87° East  Level Estimated
03:07AM 35.0408 -106.5957 267° West  Level Estimated
03:08AM 35.0344 -106.7395 87° East  Level Estimated
03:09AM 35.0408 -106.5957 267° West  Level Estimated
03:10AM 35.0344 -106.7395 267° West  Level Estimated